Time;durP1;ratioP1;P1;durP2;ratioP2;P2;SDS_P1;SDS_P2;PMS_P1;PMS_P2;Temp;Humidity;BMP_temperature;BMP_pressure;BME280_temperature;BME280_humidity;BME280_pressure;Samples;Min_cycle;Max_cycle;Signal;HPM_P1;HPM_P2
2022/03/27 00:02:05;;;;;;;16.92;9.93;;;12.70;98.90;;;;;;6306230;22;20041;-73
2022/03/27 00:04:31;;;;;;;14.55;9.82;;;12.70;99.80;;;;;;6280105;22;20076;-73
2022/03/27 00:06:57;;;;;;;15.70;10.10;;;12.70;99.80;;;;;;6306776;22;20008;-73
2022/03/27 00:09:23;;;;;;;11.82;9.13;;;12.60;99.20;;;;;;6307278;22;20006;-74
2022/03/27 00:11:49;;;;;;;14.82;9.38;;;12.60;98.90;;;;;;6306773;22;20007;-73
2022/03/27 00:14:14;;;;;;;17.67;10.52;;;12.60;99.90;;;;;;6306772;22;20006;-74
2022/03/27 00:16:40;;;;;;;16.48;9.57;;;12.60;99.90;;;;;;6304857;22;20030;-73
2022/03/27 00:19:06;;;;;;;14.43;10.93;;;12.60;99.90;;;;;;6306424;22;20034;-73
2022/03/27 00:21:32;;;;;;;14.68;9.50;;;12.60;99.90;;;;;;6305089;22;20045;-73
2022/03/27 00:23:58;;;;;;;13.10;9.27;;;12.50;99.90;;;;;;6279459;22;20014;-73
2022/03/27 00:26:24;;;;;;;13.77;9.73;;;12.50;99.90;;;;;;6307069;22;20082;-74
2022/03/27 00:28:51;;;;;;;14.02;9.57;;;12.50;99.90;;;;;;6306735;22;20527;-73
2022/03/27 00:31:17;;;;;;;13.50;10.02;;;12.50;99.90;;;;;;6306330;22;20035;-73
2022/03/27 00:33:45;;;;;;;12.93;9.43;;;12.50;99.90;;;;;;6306975;22;20000;-73
2022/03/27 00:36:13;;;;;;;15.52;10.13;;;12.40;99.90;;;;;;6306151;22;19999;-73
2022/03/27 00:38:43;;;;;;;15.73;10.45;;;12.40;99.90;;;;;;6305480;22;20003;-74
2022/03/27 00:41:09;;;;;;;14.38;9.73;;;12.40;99.90;;;;;;6306802;22;20010;-73
2022/03/27 00:43:35;;;;;;;16.00;9.73;;;12.30;99.90;;;;;;6306395;22;20004;-73
2022/03/27 00:46:02;;;;;;;13.98;9.68;;;12.20;99.90;;;;;;6306759;22;20006;-73
2022/03/27 00:48:28;;;;;;;16.55;9.63;;;12.20;99.90;;;;;;6278841;22;20055;-73
2022/03/27 00:50:54;;;;;;;16.90;10.65;;;12.20;99.90;;;;;;6305796;22;20003;-73
2022/03/27 00:53:21;;;;;;;17.38;9.95;;;12.20;99.90;;;;;;6306057;22;20018;-73
2022/03/27 00:55:48;;;;;;;11.93;9.13;;;12.20;99.90;;;;;;6306084;22;20045;-73
2022/03/27 00:58:16;;;;;;;13.48;9.65;;;12.20;99.90;;;;;;6308491;22;20003;-73
2022/03/27 01:01:04;;;;;;;13.65;9.60;;;12.20;99.90;;;;;;6306746;22;20007;-73
2022/03/27 01:03:31;;;;;;;11.52;9.15;;;12.10;99.90;;;;;;6307659;22;20082;-73
2022/03/27 01:06:00;;;;;;;13.93;10.18;;;12.10;99.90;;;;;;6308213;22;20393;-73
2022/03/27 01:11:21;;;;;;;14.23;10.15;;;12.00;99.90;;;;;;6308554;22;20060;-73
2022/03/27 01:13:55;;;;;;;16.67;9.85;;;11.80;99.90;;;;;;6307242;22;20005;-73
2022/03/27 01:16:42;;;;;;;13.20;9.02;;;11.90;99.90;;;;;;6308098;22;20120;-73
2022/03/27 01:19:15;;;;;;;14.57;9.77;;;11.80;99.90;;;;;;6306619;22;20002;-74
2022/03/27 01:21:46;;;;;;;14.77;10.55;;;11.80;99.90;;;;;;6280127;22;19999;-73
2022/03/27 01:24:13;;;;;;;15.38;10.10;;;11.90;99.90;;;;;;6280682;22;19999;-73
2022/03/27 01:26:39;;;;;;;13.10;9.55;;;11.80;99.90;;;;;;6280283;22;20440;-74
2022/03/27 01:29:05;;;;;;;15.70;10.10;;;11.80;99.90;;;;;;6280319;22;20003;-74
2022/03/27 01:31:32;;;;;;;14.82;10.82;;;11.80;99.90;;;;;;6308965;22;20011;-74
2022/03/27 01:33:57;;;;;;;15.88;10.48;;;11.70;99.90;;;;;;6306890;22;20005;-73
2022/03/27 01:36:25;;;;;;;14.98;9.77;;;11.70;99.90;;;;;;6307325;22;20071;-74
2022/03/27 01:38:54;;;;;;;15.55;9.07;;;11.60;99.90;;;;;;6308119;22;20029;-74
2022/03/27 01:41:20;;;;;;;14.07;9.48;;;11.50;99.90;;;;;;6307679;22;20003;-73
2022/03/27 01:43:46;;;;;;;15.52;9.85;;;11.50;99.90;;;;;;6306713;22;20007;-73
2022/03/27 01:46:12;;;;;;;14.18;9.82;;;11.40;99.90;;;;;;6307472;22;20411;-73
2022/03/27 01:48:37;;;;;;;12.32;9.32;;;11.30;99.90;;;;;;6307734;22;20069;-74
2022/03/27 01:51:03;;;;;;;10.77;8.13;;;11.30;99.90;;;;;;6308083;22;19999;-73
2022/03/27 01:53:29;;;;;;;11.35;8.88;;;11.20;99.90;;;;;;6306065;22;19995;-73
2022/03/27 01:55:55;;;;;;;13.25;8.75;;;11.20;99.90;;;;;;6280708;22;20022;-74
2022/03/27 01:58:22;;;;;;;12.25;8.07;;;11.20;99.90;;;;;;6279260;22;19999;-73
2022/03/27 02:00:48;;;;;;;14.93;8.95;;;11.20;99.90;;;;;;6307504;22;20156;-73
2022/03/27 02:03:13;;;;;;;12.55;8.40;;;11.20;99.90;;;;;;6308327;22;20409;-74
2022/03/27 02:05:39;;;;;;;13.98;9.45;;;11.30;99.90;;;;;;6307909;22;20417;-73
2022/03/27 02:08:05;;;;;;;11.68;9.43;;;11.20;99.90;;;;;;6308470;22;20375;-73
2022/03/27 02:10:31;;;;;;;14.23;9.50;;;11.20;99.90;;;;;;6280463;22;20019;-73
2022/03/27 02:12:56;;;;;;;10.68;8.73;;;11.20;99.90;;;;;;6307577;22;20321;-76
2022/03/27 02:15:23;;;;;;;11.75;8.93;;;11.10;99.90;;;;;;6307905;22;20053;-73
2022/03/27 02:17:49;;;;;;;17.17;10.50;;;11.10;99.90;;;;;;6308269;22;20022;-73
2022/03/27 02:20:15;;;;;;;15.00;9.75;;;11.10;99.90;;;;;;6306181;22;20006;-73
2022/03/27 02:22:41;;;;;;;16.08;10.10;;;11.00;99.90;;;;;;6307439;22;20007;-73
2022/03/27 02:25:07;;;;;;;19.70;10.57;;;11.10;99.90;;;;;;6307791;22;20007;-74
2022/03/27 02:27:33;;;;;;;15.10;10.38;;;11.10;99.90;;;;;;6307914;22;20416;-74
2022/03/27 02:29:59;;;;;;;14.13;10.32;;;11.10;99.90;;;;;;6307802;22;20086;-74
2022/03/27 02:32:25;;;;;;;13.25;10.18;;;11.00;99.90;;;;;;6307445;22;20417;-75
2022/03/27 02:34:50;;;;;;;12.35;9.52;;;10.90;99.90;;;;;;6307940;22;20078;-74
2022/03/27 02:37:16;;;;;;;13.02;8.98;;;10.90;99.90;;;;;;6279511;22;20468;-74
2022/03/27 02:39:43;;;;;;;16.55;9.68;;;10.80;99.90;;;;;;6306214;22;20023;-74
2022/03/27 02:42:09;;;;;;;14.93;10.50;;;10.80;99.90;;;;;;6306757;22;20084;-74
2022/03/27 02:44:34;;;;;;;15.25;10.60;;;10.70;99.90;;;;;;6305822;22;20003;-74
2022/03/27 02:47:00;;;;;;;12.88;9.07;;;10.80;99.90;;;;;;6307579;22;20045;-74
2022/03/27 02:49:25;;;;;;;12.85;9.95;;;10.70;99.90;;;;;;6279931;22;19995;-74
2022/03/27 02:51:51;;;;;;;13.25;10.45;;;10.70;99.90;;;;;;6307826;22;20074;-74
2022/03/27 02:54:17;;;;;;;15.05;10.35;;;10.60;99.90;;;;;;6307752;22;19999;-74
2022/03/27 02:56:43;;;;;;;16.67;9.80;;;10.70;99.90;;;;;;6307028;22;20000;-74
2022/03/27 02:59:09;;;;;;;16.15;10.00;;;10.70;99.90;;;;;;6307603;22;20003;-74
2022/03/27 03:01:36;;;;;;;14.57;10.63;;;10.60;99.90;;;;;;6307102;22;20011;-75
2022/03/27 03:04:02;;;;;;;16.17;10.30;;;10.60;99.90;;;;;;6306448;22;20313;-75
2022/03/27 03:06:30;;;;;;;14.25;8.95;;;10.60;99.90;;;;;;6307206;22;20000;-74
2022/03/27 03:08:56;;;;;;;12.82;8.95;;;10.50;99.90;;;;;;6307407;22;20372;-74
2022/03/27 03:11:22;;;;;;;13.38;9.63;;;10.60;99.90;;;;;;6306672;22;20078;-74
2022/03/27 03:13:50;;;;;;;16.02;9.65;;;10.60;99.90;;;;;;6305441;22;20033;-75
2022/03/27 03:16:16;;;;;;;15.63;9.30;;;10.50;99.90;;;;;;6306733;22;20003;-74
2022/03/27 03:18:43;;;;;;;15.98;9.88;;;10.50;99.90;;;;;;6306573;22;20432;-75
2022/03/27 03:21:08;;;;;;;15.70;10.50;;;10.50;99.90;;;;;;6307377;22;19999;-75
2022/03/27 03:23:36;;;;;;;15.60;9.73;;;10.50;99.90;;;;;;6279427;22;20073;-75
2022/03/27 03:26:04;;;;;;;13.27;9.43;;;10.50;99.90;;;;;;6307244;22;20014;-74
2022/03/27 03:28:29;;;;;;;12.35;9.00;;;10.50;99.90;;;;;;6279511;22;20454;-75
2022/03/27 03:30:55;;;;;;;13.25;9.38;;;10.40;99.90;;;;;;6305774;22;20082;-74
2022/03/27 03:33:21;;;;;;;17.30;9.70;;;10.40;99.90;;;;;;6306768;22;20056;-74
2022/03/27 03:35:47;;;;;;;13.85;10.40;;;10.50;99.90;;;;;;6307782;22;19995;-75
2022/03/27 03:38:13;;;;;;;15.77;8.77;;;10.40;99.90;;;;;;6307151;22;20000;-74
2022/03/27 03:40:40;;;;;;;15.95;10.10;;;10.40;99.90;;;;;;6305320;22;20033;-74
2022/03/27 03:43:06;;;;;;;13.55;10.10;;;10.50;99.90;;;;;;6306629;22;20007;-75
2022/03/27 03:45:32;;;;;;;14.93;10.45;;;10.50;99.90;;;;;;6306912;22;20007;-75
2022/03/27 03:47:59;;;;;;;15.90;11.05;;;10.40;99.90;;;;;;6304393;22;20078;-75
2022/03/27 03:50:26;;;;;;;16.55;11.65;;;10.30;99.90;;;;;;6306982;22;20417;-74
2022/03/27 03:52:52;;;;;;;15.85;10.68;;;10.40;99.90;;;;;;6307096;22;20026;-75
2022/03/27 03:55:18;;;;;;;21.40;11.82;;;10.40;99.90;;;;;;6306856;22;20409;-74
2022/03/27 03:57:43;;;;;;;24.83;13.93;;;10.40;99.90;;;;;;6304942;22;20312;-74
2022/03/27 04:00:10;;;;;;;26.10;16.92;;;10.40;99.90;;;;;;6279444;22;20356;-74
2022/03/27 04:02:36;;;;;;;25.48;16.73;;;10.40;99.90;;;;;;6306759;22;20011;-74
2022/03/27 04:05:02;;;;;;;31.30;17.27;;;10.50;99.90;;;;;;6307279;22;20011;-74
2022/03/27 04:07:27;;;;;;;29.52;18.48;;;10.40;99.90;;;;;;6306922;22;20120;-74
2022/03/27 04:09:53;;;;;;;35.28;20.15;;;10.50;99.90;;;;;;6306791;22;20006;-74
2022/03/27 04:12:19;;;;;;;33.92;22.33;;;10.40;99.90;;;;;;6278643;22;20064;-74
2022/03/27 04:14:45;;;;;;;35.35;22.25;;;10.40;99.90;;;;;;6306607;22;20014;-74
2022/03/27 04:17:11;;;;;;;40.65;22.50;;;10.40;99.90;;;;;;6279318;22;20003;-75
2022/03/27 04:19:37;;;;;;;44.08;25.42;;;10.40;99.90;;;;;;6306596;22;20024;-74
2022/03/27 04:22:03;;;;;;;45.92;25.10;;;10.20;99.90;;;;;;6306697;22;20007;-74
2022/03/27 04:24:29;;;;;;;38.65;23.42;;;10.30;99.90;;;;;;6305283;22;20428;-74
2022/03/27 04:26:55;;;;;;;36.97;23.23;;;10.20;99.90;;;;;;6306290;22;20076;-74
2022/03/27 04:29:21;;;;;;;46.85;27.77;;;10.30;99.90;;;;;;6307408;22;20061;-74
2022/03/27 04:31:47;;;;;;;42.95;25.90;;;10.40;99.90;;;;;;6308228;22;20078;-74
2022/03/27 04:34:12;;;;;;;49.38;28.30;;;10.50;99.90;;;;;;6308946;22;20037;-74
2022/03/27 04:36:38;;;;;;;47.55;26.27;;;10.50;99.90;;;;;;6307670;22;20079;-74
2022/03/27 04:39:05;;;;;;;53.65;27.67;;;10.50;99.90;;;;;;6280905;22;19995;-74
2022/03/27 04:41:32;;;;;;;54.17;27.73;;;10.50;99.90;;;;;;6307216;22;20445;-74
2022/03/27 04:43:57;;;;;;;58.13;30.23;;;10.40;99.90;;;;;;6308393;22;20059;-75
2022/03/27 04:46:23;;;;;;;53.22;29.45;;;10.40;99.90;;;;;;6281867;22;20003;-74
2022/03/27 04:48:49;;;;;;;48.35;27.88;;;10.40;99.90;;;;;;6281435;22;20078;-74
2022/03/27 04:51:14;;;;;;;45.70;28.92;;;10.50;99.90;;;;;;6280440;22;20007;-75
2022/03/27 04:53:40;;;;;;;57.47;28.75;;;10.30;99.90;;;;;;6307400;22;20380;-74
2022/03/27 04:56:06;;;;;;;70.15;32.42;;;10.40;99.90;;;;;;6308837;22;20004;-74
2022/03/27 04:58:32;;;;;;;54.83;30.80;;;10.20;99.90;;;;;;6280926;22;20003;-74
2022/03/27 05:00:57;;;;;;;53.22;28.58;;;10.20;99.90;;;;;;6308038;22;20486;-74
2022/03/27 05:03:23;;;;;;;56.28;29.00;;;10.30;99.90;;;;;;6308808;22;20010;-74
2022/03/27 05:05:49;;;;;;;62.67;32.58;;;10.40;99.90;;;;;;6307093;22;19995;-75
2022/03/27 05:08:15;;;;;;;66.93;31.92;;;10.40;99.90;;;;;;6308021;22;20041;-75
2022/03/27 05:10:41;;;;;;;64.65;32.53;;;10.30;99.90;;;;;;6306925;22;20034;-74
2022/03/27 05:13:07;;;;;;;61.17;29.90;;;10.40;99.90;;;;;;6308394;22;20003;-74
2022/03/27 05:15:33;;;;;;;65.78;32.95;;;10.50;99.90;;;;;;6280596;22;20053;-74
2022/03/27 05:17:59;;;;;;;62.70;32.17;;;10.60;99.90;;;;;;6308583;22;20003;-74
2022/03/27 05:20:30;;;;;;;77.07;36.72;;;10.70;99.90;;;;;;6279177;22;20000;-75
2022/03/27 05:22:56;;;;;;;71.05;35.38;;;10.70;99.90;;;;;;6280872;22;20007;-75
2022/03/27 05:25:22;;;;;;;79.65;35.60;;;10.70;99.90;;;;;;6308252;22;20076;-74
2022/03/27 05:27:50;;;;;;;77.00;36.53;;;10.70;99.90;;;;;;6306238;22;20003;-75
2022/03/27 05:30:19;;;;;;;82.65;37.05;;;10.80;99.90;;;;;;6307725;22;20094;-74
2022/03/27 05:32:45;;;;;;;78.60;35.38;;;10.70;99.90;;;;;;6279219;22;20008;-75
2022/03/27 05:35:11;;;;;;;89.88;37.22;;;10.80;99.90;;;;;;6307489;22;20007;-75
2022/03/27 05:37:39;;;;;;;92.57;39.22;;;10.70;99.90;;;;;;6307812;22;20048;-74
2022/03/27 05:40:07;;;;;;;111.28;41.10;;;10.70;99.90;;;;;;6305936;22;20417;-74
2022/03/27 05:42:32;;;;;;;91.95;38.60;;;10.60;99.90;;;;;;6307761;22;20448;-74
2022/03/27 05:44:59;;;;;;;135.07;38.50;;;10.60;99.90;;;;;;6308481;22;20093;-74
2022/03/27 05:47:26;;;;;;;95.07;39.55;;;10.50;99.90;;;;;;6280561;22;20393;-74
2022/03/27 05:49:51;;;;;;;107.35;40.10;;;10.50;99.90;;;;;;6278747;22;20046;-74
2022/03/27 05:52:17;;;;;;;96.68;37.92;;;10.50;99.90;;;;;;6280962;22;19999;-74
2022/03/27 05:54:43;;;;;;;123.47;39.85;;;10.50;99.90;;;;;;6308449;22;20003;-74
2022/03/27 05:57:09;;;;;;;101.70;43.05;;;10.50;99.90;;;;;;6308205;22;19999;-75
2022/03/27 05:59:35;;;;;;;92.57;38.88;;;10.40;99.90;;;;;;6306379;22;20324;-73
2022/03/27 06:02:00;;;;;;;107.18;43.28;;;10.50;99.90;;;;;;6280453;22;20015;-74
2022/03/27 06:04:29;;;;;;;90.97;40.05;;;10.50;99.90;;;;;;6306740;22;20073;-73
2022/03/27 06:06:54;;;;;;;95.95;41.22;;;10.60;99.90;;;;;;6307232;22;20010;-74
2022/03/27 06:09:20;;;;;;;96.97;41.03;;;10.50;99.90;;;;;;6280923;22;20086;-74
2022/03/27 06:11:46;;;;;;;85.30;38.97;;;10.50;99.90;;;;;;6281086;22;20022;-74
2022/03/27 06:14:12;;;;;;;110.38;40.25;;;10.60;99.90;;;;;;6306448;22;20000;-74
2022/03/27 06:16:38;;;;;;;92.25;39.35;;;10.60;99.90;;;;;;6307471;22;20003;-74
2022/03/27 06:19:04;;;;;;;95.20;36.72;;;10.60;99.90;;;;;;6280165;22;20475;-74
2022/03/27 06:21:30;;;;;;;84.07;38.92;;;10.60;99.90;;;;;;6278336;22;20424;-74
2022/03/27 06:23:56;;;;;;;95.00;39.22;;;10.70;99.90;;;;;;6307989;22;20421;-74
2022/03/27 06:26:22;;;;;;;80.95;37.90;;;10.50;99.90;;;;;;6280440;22;20003;-74
2022/03/27 06:28:47;;;;;;;72.50;35.97;;;10.60;99.90;;;;;;6307644;22;20008;-73
2022/03/27 06:31:13;;;;;;;82.03;35.53;;;10.60;99.90;;;;;;6308267;22;20030;-73
2022/03/27 06:33:39;;;;;;;94.75;41.30;;;10.50;99.90;;;;;;6305968;22;19999;-73
2022/03/27 06:36:05;;;;;;;82.90;39.38;;;10.60;99.90;;;;;;6280105;22;20007;-73
2022/03/27 06:38:31;;;;;;;86.95;37.22;;;10.70;99.90;;;;;;6280647;22;20003;-73
2022/03/27 06:40:56;;;;;;;68.72;34.85;;;10.70;99.90;;;;;;6280231;22;20460;-73
2022/03/27 06:43:22;;;;;;;73.32;33.58;;;10.70;99.90;;;;;;6305256;22;20409;-73
2022/03/27 06:45:49;;;;;;;62.72;32.80;;;10.70;99.90;;;;;;6279983;22;19999;-73
2022/03/27 06:48:15;;;;;;;71.57;34.38;;;10.60;99.90;;;;;;6307536;22;20000;-74
2022/03/27 06:50:41;;;;;;;70.28;30.95;;;10.70;99.90;;;;;;6307660;22;20014;-73
2022/03/27 06:53:07;;;;;;;67.05;30.15;;;10.40;99.90;;;;;;6305428;22;20049;-73
2022/03/27 06:55:33;;;;;;;75.00;32.17;;;10.60;99.90;;;;;;6307260;22;20000;-73
2022/03/27 06:57:59;;;;;;;65.10;30.30;;;10.50;99.90;;;;;;6305878;22;19999;-73
2022/03/27 07:03:11;;;;;;;72.93;33.60;;;10.50;99.90;;;;;;6305234;22;20058;-73
2022/03/27 07:05:42;;;;;;;69.38;33.33;;;10.40;99.90;;;;;;6306103;22;20003;-74
2022/03/27 07:08:13;;;;;;;133.13;36.88;;;10.50;99.90;;;;;;6307614;22;20000;-73
2022/03/27 07:10:39;;;;;;;91.07;34.20;;;10.40;99.90;;;;;;6306712;22;20010;-74
2022/03/27 07:13:08;;;;;;;75.22;32.33;;;10.30;99.90;;;;;;6305123;22;20003;-74
2022/03/27 07:15:35;;;;;;;62.30;31.17;;;10.20;99.90;;;;;;6306987;22;19995;-74
2022/03/27 07:18:01;;;;;;;70.70;29.60;;;10.10;99.90;;;;;;6305512;22;20007;-74
2022/03/27 07:20:28;;;;;;;62.95;27.35;;;10.10;99.90;;;;;;6279477;22;20490;-74
2022/03/27 07:22:57;;;;;;;56.33;26.50;;;10.30;99.90;;;;;;6279487;22;20037;-74
2022/03/27 07:25:24;;;;;;;57.38;27.58;;;10.20;99.90;;;;;;6306100;22;20313;-75
2022/03/27 07:27:50;;;;;;;65.35;29.45;;;10.30;99.90;;;;;;6280127;22;20011;-74
2022/03/27 07:30:16;;;;;;;65.65;28.98;;;10.30;99.90;;;;;;6306655;22;20003;-75
2022/03/27 07:32:42;;;;;;;65.20;30.27;;;10.20;99.90;;;;;;6276701;22;20042;-74
2022/03/27 07:35:14;;;;;;;54.78;26.40;;;10.20;99.90;;;;;;6306216;22;19999;-74
2022/03/27 07:37:41;;;;;;;58.63;26.42;;;10.30;99.90;;;;;;6307505;22;20437;-74
2022/03/27 07:40:09;;;;;;;53.72;27.38;;;10.30;99.90;;;;;;6307192;22;19996;-74
2022/03/27 07:42:36;;;;;;;50.00;25.67;;;10.40;99.90;;;;;;6304844;22;20436;-74
2022/03/27 07:45:03;;;;;;;58.33;26.15;;;10.50;99.90;;;;;;6305629;22;20003;-74
2022/03/27 07:47:29;;;;;;;57.45;27.75;;;10.40;99.90;;;;;;6279140;22;20084;-74
2022/03/27 07:49:55;;;;;;;63.42;27.50;;;10.50;99.90;;;;;;6306667;22;20003;-74
2022/03/27 07:52:22;;;;;;;65.85;29.35;;;10.40;99.90;;;;;;6305681;22;20013;-74
2022/03/27 07:54:49;;;;;;;57.58;27.33;;;10.50;99.90;;;;;;6306501;22;20034;-75
2022/03/27 07:57:15;;;;;;;49.35;25.05;;;10.50;99.90;;;;;;6306901;22;20074;-75
2022/03/27 07:59:40;;;;;;;53.17;26.33;;;10.50;99.90;;;;;;6306231;22;20038;-74
2022/03/27 08:02:06;;;;;;;49.05;24.77;;;10.50;99.90;;;;;;6305250;22;20094;-75
2022/03/27 08:04:34;;;;;;;50.95;26.35;;;10.60;99.90;;;;;;6306562;22;20006;-75
2022/03/27 08:07:00;;;;;;;52.00;26.50;;;10.50;99.90;;;;;;6307247;22;20447;-74
2022/03/27 08:09:26;;;;;;;54.42;26.70;;;10.50;99.90;;;;;;6306805;22;20359;-75
2022/03/27 08:11:52;;;;;;;54.33;26.65;;;10.60;99.90;;;;;;6306765;22;20008;-74
2022/03/27 08:14:18;;;;;;;49.25;25.85;;;10.70;99.90;;;;;;6306978;22;20070;-74
2022/03/27 08:16:44;;;;;;;49.25;26.38;;;10.70;99.90;;;;;;6305849;22;20060;-75
2022/03/27 08:19:10;;;;;;;57.33;26.75;;;10.80;99.90;;;;;;6306992;22;19995;-74
2022/03/27 08:21:35;;;;;;;56.08;27.88;;;10.90;99.90;;;;;;6306794;22;19999;-74
2022/03/27 08:24:01;;;;;;;53.95;24.50;;;10.90;99.90;;;;;;6306937;22;20007;-74
2022/03/27 08:29:11;;;;;;;51.03;26.52;;;10.90;99.90;;;;;;6304466;22;20502;-74
2022/03/27 08:31:37;;;;;;;53.10;27.48;;;11.00;99.90;;;;;;6304907;22;20035;-74
2022/03/27 08:34:03;;;;;;;49.75;24.20;;;11.10;99.90;;;;;;6305715;22;20007;-74
2022/03/27 08:36:29;;;;;;;50.75;25.80;;;11.00;99.90;;;;;;6279078;22;20413;-75
2022/03/27 08:38:55;;;;;;;47.50;25.10;;;10.80;99.90;;;;;;6278859;22;20026;-74
2022/03/27 08:41:21;;;;;;;39.83;23.33;;;10.70;99.90;;;;;;6305898;22;20007;-75
2022/03/27 08:43:49;;;;;;;43.05;23.60;;;10.60;99.90;;;;;;6306213;22;20060;-74
2022/03/27 08:46:16;;;;;;;52.60;26.48;;;10.60;99.90;;;;;;6306037;22;20078;-74
2022/03/27 08:48:44;;;;;;;49.22;25.63;;;10.80;99.90;;;;;;6306046;22;20084;-74
2022/03/27 08:51:34;;;;;;;48.30;25.15;;;10.80;99.90;;;;;;6305783;22;20007;-74
2022/03/27 08:54:06;;;;;;;51.00;25.90;;;10.90;99.90;;;;;;6306752;22;19999;-74
2022/03/27 08:56:34;;;;;;;50.88;24.25;;;10.80;99.90;;;;;;6278707;22;19999;-74
2022/03/27 08:59:07;;;;;;;49.03;27.58;;;10.80;99.90;;;;;;6305895;22;20045;-74
2022/03/27 09:01:33;;;;;;;50.97;25.08;;;11.00;99.90;;;;;;6277780;22;20039;-74
2022/03/27 09:03:58;;;;;;;50.65;26.40;;;11.20;99.90;;;;;;6306020;22;20014;-74
2022/03/27 09:06:25;;;;;;;61.92;27.77;;;11.20;99.90;;;;;;6276496;22;20410;-74
2022/03/27 09:08:53;;;;;;;57.03;27.67;;;11.10;99.90;;;;;;6277213;22;20046;-74
2022/03/27 09:11:19;;;;;;;57.50;27.83;;;11.10;99.90;;;;;;6278103;22;19999;-74
2022/03/27 09:13:48;;;;;;;53.45;29.30;;;11.10;99.90;;;;;;6303916;22;20002;-74
2022/03/27 09:16:14;;;;;;;51.70;26.30;;;11.20;99.90;;;;;;6278858;22;20082;-73
2022/03/27 09:18:48;;;;;;;56.00;27.85;;;11.30;99.90;;;;;;6280525;22;20061;-75
2022/03/27 09:21:14;;;;;;;51.88;26.15;;;11.20;99.90;;;;;;6307973;22;20006;-75
2022/03/27 09:23:41;;;;;;;55.58;27.40;;;11.30;99.90;;;;;;6308740;22;20003;-75
2022/03/27 09:26:17;;;;;;;48.50;25.33;;;11.30;99.90;;;;;;6281491;22;20014;-75
2022/03/27 09:28:48;;;;;;;50.53;25.35;;;11.40;99.90;;;;;;6306983;22;20091;-75
2022/03/27 09:31:16;;;;;;;47.35;25.58;;;11.30;99.90;;;;;;6308188;22;20077;-75
2022/03/27 09:33:49;;;;;;;50.58;26.75;;;11.50;99.90;;;;;;6308976;22;20011;-75
2022/03/27 09:36:26;;;;;;;43.97;24.25;;;11.40;99.90;;;;;;6308508;22;20447;-75
2022/03/27 09:39:04;;;;;;;50.38;26.73;;;11.30;99.90;;;;;;6307967;22;20045;-75
2022/03/27 09:42:01;;;;;;;47.20;25.38;;;11.30;99.90;;;;;;6307995;22;20010;-75
2022/03/27 09:44:29;;;;;;;45.72;25.00;;;11.40;99.90;;;;;;6306414;22;20011;-75
2022/03/27 09:47:08;;;;;;;43.90;24.65;;;11.50;99.90;;;;;;6280617;22;20428;-75
2022/03/27 09:49:34;;;;;;;51.53;25.98;;;11.60;99.90;;;;;;6307848;22;20025;-75
2022/03/27 09:52:14;;;;;;;46.80;24.70;;;11.50;99.90;;;;;;6308208;22;20457;-75
2022/03/27 09:54:50;;;;;;;44.05;24.60;;;11.50;99.90;;;;;;6308371;22;20320;-76
2022/03/27 09:57:28;;;;;;;42.78;23.90;;;11.50;99.90;;;;;;6308405;22;20003;-75
2022/03/27 09:59:56;;;;;;;50.20;26.52;;;11.50;99.90;;;;;;6308043;22;20003;-75
2022/03/27 10:02:30;;;;;;;52.97;26.75;;;11.50;99.90;;;;;;6307990;22;20498;-75
2022/03/27 10:04:57;;;;;;;46.20;25.00;;;11.50;99.90;;;;;;6306597;22;20003;-76
2022/03/27 10:07:25;;;;;;;40.97;23.33;;;11.50;99.90;;;;;;6308057;22;20481;-75
2022/03/27 10:09:55;;;;;;;46.05;23.65;;;11.50;99.90;;;;;;6280693;22;20382;-76
2022/03/27 10:12:28;;;;;;;46.00;24.83;;;11.50;99.90;;;;;;6307590;22;20187;-75
2022/03/27 10:15:15;;;;;;;49.22;25.30;;;11.50;99.90;;;;;;6307669;22;20435;-75
2022/03/27 10:17:53;;;;;;;44.90;24.92;;;11.50;99.90;;;;;;6307770;22;20139;-75
2022/03/27 10:20:22;;;;;;;45.33;24.88;;;11.60;99.90;;;;;;6308058;22;20367;-75
2022/03/27 10:22:53;;;;;;;48.92;26.90;;;11.60;99.90;;;;;;6308129;22;20482;-75
2022/03/27 10:25:19;;;;;;;49.50;26.17;;;11.60;99.90;;;;;;6307843;22;20025;-75
2022/03/27 10:27:47;;;;;;;47.15;25.35;;;11.60;99.90;;;;;;6308188;22;20053;-75
2022/03/27 10:30:16;;;;;;;43.88;24.63;;;11.50;99.90;;;;;;6307657;22;20003;-75
2022/03/27 10:32:43;;;;;;;45.55;26.00;;;11.50;99.90;;;;;;6307327;22;20008;-75
2022/03/27 10:35:30;;;;;;;44.92;24.92;;;11.50;99.90;;;;;;6307958;22;20435;-75
2022/03/27 10:38:13;;;;;;;45.65;24.02;;;11.50;99.90;;;;;;6307745;22;19999;-76
2022/03/27 10:41:09;;;;;;;50.33;27.40;;;11.60;99.90;;;;;;6279920;22;20003;-76
2022/03/27 10:43:50;;;;;;;47.75;24.27;;;11.70;99.90;;;;;;6280298;22;20060;-75
2022/03/27 10:46:24;;;;;;;47.20;26.98;;;11.60;99.90;;;;;;6307258;22;20482;-76
2022/03/27 10:48:53;;;;;;;45.20;25.83;;;11.70;99.90;;;;;;6280289;22;20048;-74
2022/03/27 10:51:24;;;;;;;48.67;26.23;;;11.90;99.90;;;;;;6308001;22;20006;-76
2022/03/27 10:54:05;;;;;;;50.55;28.77;;;12.00;99.90;;;;;;6306384;22;20005;-76
2022/03/27 10:56:43;;;;;;;55.10;28.75;;;12.00;99.90;;;;;;6307718;22;20027;-76
2022/03/27 10:59:16;;;;;;;52.85;28.83;;;11.80;99.90;;;;;;6307841;22;20022;-76
2022/03/27 11:01:44;;;;;;;50.70;28.38;;;11.90;99.90;;;;;;6307230;22;20011;-75
2022/03/27 11:04:21;;;;;;;51.53;28.23;;;11.90;99.90;;;;;;6308093;22;20043;-75
2022/03/27 11:06:52;;;;;;;51.00;27.48;;;11.80;99.90;;;;;;6280261;22;20057;-76
2022/03/27 11:09:35;;;;;;;46.38;26.63;;;11.80;99.90;;;;;;6307126;22;20006;-76
2022/03/27 11:12:06;;;;;;;46.40;25.52;;;11.90;99.90;;;;;;6306733;22;20026;-75
2022/03/27 11:14:56;;;;;;;44.97;26.00;;;12.00;99.90;;;;;;6307553;22;20048;-76
2022/03/27 11:17:36;;;;;;;48.47;26.98;;;12.00;99.90;;;;;;6306719;22;20007;-76
2022/03/27 11:20:33;;;;;;;46.70;27.17;;;12.00;99.90;;;;;;6307456;22;20066;-76
2022/03/27 11:23:00;;;;;;;47.47;27.05;;;12.20;99.90;;;;;;6307209;22;20004;-76
2022/03/27 11:25:38;;;;;;;52.08;27.88;;;12.30;99.90;;;;;;6307412;22;20006;-76
2022/03/27 11:28:11;;;;;;;48.97;28.23;;;12.50;99.90;;;;;;6280413;22;20090;-76
2022/03/27 11:31:00;;;;;;;51.67;30.25;;;12.40;99.90;;;;;;6307378;22;20049;-76
2022/03/27 11:33:29;;;;;;;51.90;28.30;;;12.50;99.90;;;;;;6307014;22;20443;-75
2022/03/27 11:36:01;;;;;;;49.20;27.73;;;12.50;99.90;;;;;;6306771;22;20009;-76
2022/03/27 11:38:29;;;;;;;54.42;29.55;;;12.40;99.90;;;;;;6277958;22;20317;-76
2022/03/27 11:41:17;;;;;;;47.33;25.55;;;12.50;99.90;;;;;;6307473;22;20078;-76
2022/03/27 11:43:43;;;;;;;46.25;27.30;;;12.60;99.90;;;;;;6307228;22;20015;-75
2022/03/27 11:46:19;;;;;;;44.58;24.73;;;12.50;99.90;;;;;;6307235;22;19999;-75
2022/03/27 11:48:53;;;;;;;44.60;24.77;;;12.50;99.90;;;;;;6307073;22;20030;-75
2022/03/27 11:51:19;;;;;;;47.25;25.80;;;12.60;99.90;;;;;;6307418;22;20010;-75
2022/03/27 11:53:45;;;;;;;46.53;25.60;;;12.60;99.90;;;;;;6306717;22;19999;-76
2022/03/27 11:56:11;;;;;;;46.40;25.60;;;12.50;99.90;;;;;;6306985;22;20443;-75
2022/03/27 11:58:38;;;;;;;53.22;27.05;;;12.70;99.90;;;;;;6305809;22;20009;-76
2022/03/27 12:01:06;;;;;;;54.05;28.50;;;12.90;99.90;;;;;;6306691;22;20371;-75
2022/03/27 12:03:32;;;;;;;55.78;28.88;;;13.00;99.90;;;;;;6307133;22;20026;-75
2022/03/27 12:06:25;;;;;;;52.95;26.33;;;13.00;99.90;;;;;;6306085;22;20003;-76
2022/03/27 12:08:52;;;;;;;51.75;26.95;;;13.00;99.90;;;;;;6306137;22;20001;-75
2022/03/27 12:11:22;;;;;;;52.15;28.15;;;13.20;99.90;;;;;;6307302;22;20851;-76
2022/03/27 12:13:50;;;;;;;59.55;29.55;;;13.30;99.90;;;;;;6307212;22;20003;-75
2022/03/27 12:16:21;;;;;;;57.83;28.63;;;13.40;99.90;;;;;;6306536;22;20496;-76
2022/03/27 12:18:49;;;;;;;56.60;29.80;;;13.50;99.90;;;;;;6306543;22;20079;-75
2022/03/27 12:21:20;;;;;;;53.40;26.70;;;13.60;99.90;;;;;;6306995;22;20075;-76
2022/03/27 12:23:56;;;;;;;53.38;27.88;;;13.60;99.90;;;;;;6305910;22;20417;-76
2022/03/27 12:29:43;;;;;;;52.25;26.20;;;13.80;99.90;;;;;;6307068;22;20010;-76
2022/03/27 12:32:25;;;;;;;47.63;24.10;;;13.90;99.90;;;;;;6306726;22;20000;-76
2022/03/27 12:34:54;;;;;;;45.60;24.33;;;13.80;99.90;;;;;;6307006;22;19995;-76
2022/03/27 12:37:22;;;;;;;48.60;24.83;;;13.80;99.90;;;;;;6306230;22;20298;-76
2022/03/27 12:39:48;;;;;;;44.63;23.90;;;13.90;99.90;;;;;;6306145;22;19995;-76
2022/03/27 12:42:37;;;;;;;44.40;23.20;;;14.10;99.90;;;;;;6307624;22;20014;-75
2022/03/27 12:45:23;;;;;;;44.58;23.65;;;14.60;99.90;;;;;;6306824;22;20010;-75
2022/03/27 12:47:58;;;;;;;42.45;22.50;;;14.80;99.90;;;;;;6307097;22;20052;-75